sensor_id;sensor_type;location;lat;lon;timestamp;P1;durP1;ratioP1;P2;durP2;ratioP2
13927;SDS011;7036;50.834;4.718;2024-01-30T00:00:10;2.60;;;2.40;;
13927;SDS011;7036;50.834;4.718;2024-01-30T00:02:38;2.53;;;2.22;;
13927;SDS011;7036;50.834;4.718;2024-01-30T00:05:06;3.00;;;2.50;;
13927;SDS011;7036;50.834;4.718;2024-01-30T00:07:33;3.20;;;2.90;;
13927;SDS011;7036;50.834;4.718;2024-01-30T00:10:00;3.20;;;2.37;;
13927;SDS011;7036;50.834;4.718;2024-01-30T00:12:28;2.78;;;2.58;;
13927;SDS011;7036;50.834;4.718;2024-01-30T00:14:55;3.05;;;2.75;;
13927;SDS011;7036;50.834;4.718;2024-01-30T00:17:23;2.58;;;2.33;;
13927;SDS011;7036;50.834;4.718;2024-01-30T00:19:51;2.80;;;2.30;;
13927;SDS011;7036;50.834;4.718;2024-01-30T00:22:18;2.77;;;2.57;;
13927;SDS011;7036;50.834;4.718;2024-01-30T00:24:46;2.35;;;2.15;;
13927;SDS011;7036;50.834;4.718;2024-01-30T00:27:16;2.67;;;2.47;;
13927;SDS011;7036;50.834;4.718;2024-01-30T00:29:42;2.80;;;2.60;;
13927;SDS011;7036;50.834;4.718;2024-01-30T00:32:10;3.20;;;2.58;;
13927;SDS011;7036;50.834;4.718;2024-01-30T00:34:37;2.42;;;2.22;;
13927;SDS011;7036;50.834;4.718;2024-01-30T00:37:05;2.83;;;2.53;;
13927;SDS011;7036;50.834;4.718;2024-01-30T00:39:34;3.10;;;2.60;;
13927;SDS011;7036;50.834;4.718;2024-01-30T00:42:02;2.75;;;2.35;;
13927;SDS011;7036;50.834;4.718;2024-01-30T00:44:30;2.85;;;2.65;;
13927;SDS011;7036;50.834;4.718;2024-01-30T00:46:58;2.50;;;2.30;;
13927;SDS011;7036;50.834;4.718;2024-01-30T00:49:25;3.67;;;2.85;;
13927;SDS011;7036;50.834;4.718;2024-01-30T00:51:53;2.70;;;2.47;;
13927;SDS011;7036;50.834;4.718;2024-01-30T00:54:21;2.60;;;2.40;;
13927;SDS011;7036;50.834;4.718;2024-01-30T00:56:49;2.88;;;2.58;;
13927;SDS011;7036;50.834;4.718;2024-01-30T00:59:17;2.58;;;2.38;;
13927;SDS011;7036;50.834;4.718;2024-01-30T01:01:44;2.70;;;2.50;;
13927;SDS011;7036;50.834;4.718;2024-01-30T01:04:12;3.13;;;2.55;;
13927;SDS011;7036;50.834;4.718;2024-01-30T01:06:40;2.45;;;2.22;;
13927;SDS011;7036;50.834;4.718;2024-01-30T01:09:08;2.85;;;2.38;;
13927;SDS011;7036;50.834;4.718;2024-01-30T01:11:36;2.53;;;2.33;;
13927;SDS011;7036;50.834;4.718;2024-01-30T01:14:03;2.53;;;2.30;;
13927;SDS011;7036;50.834;4.718;2024-01-30T01:16:31;2.97;;;2.40;;
13927;SDS011;7036;50.834;4.718;2024-01-30T01:18:59;3.40;;;2.22;;
13927;SDS011;7036;50.834;4.718;2024-01-30T01:21:27;2.42;;;2.20;;
13927;SDS011;7036;50.834;4.718;2024-01-30T01:23:55;3.45;;;2.50;;
13927;SDS011;7036;50.834;4.718;2024-01-30T01:26:22;2.15;;;1.95;;
13927;SDS011;7036;50.834;4.718;2024-01-30T01:28:50;2.38;;;2.13;;
13927;SDS011;7036;50.834;4.718;2024-01-30T01:31:18;2.55;;;2.35;;
13927;SDS011;7036;50.834;4.718;2024-01-30T01:33:46;2.55;;;2.20;;
13927;SDS011;7036;50.834;4.718;2024-01-30T01:36:13;2.63;;;2.35;;
13927;SDS011;7036;50.834;4.718;2024-01-30T01:38:41;2.85;;;2.58;;
13927;SDS011;7036;50.834;4.718;2024-01-30T01:41:09;2.58;;;2.38;;
13927;SDS011;7036;50.834;4.718;2024-01-30T01:43:37;2.83;;;2.30;;
13927;SDS011;7036;50.834;4.718;2024-01-30T01:46:05;2.60;;;2.30;;
13927;SDS011;7036;50.834;4.718;2024-01-30T01:48:32;2.83;;;2.63;;
13927;SDS011;7036;50.834;4.718;2024-01-30T01:51:00;2.70;;;2.33;;
13927;SDS011;7036;50.834;4.718;2024-01-30T01:53:27;2.55;;;2.35;;
13927;SDS011;7036;50.834;4.718;2024-01-30T01:55:55;2.85;;;2.40;;
13927;SDS011;7036;50.834;4.718;2024-01-30T01:58:23;2.55;;;2.28;;
13927;SDS011;7036;50.834;4.718;2024-01-30T02:00:51;2.63;;;2.42;;
13927;SDS011;7036;50.834;4.718;2024-01-30T02:03:19;2.80;;;2.45;;
13927;SDS011;7036;50.834;4.718;2024-01-30T02:05:47;2.63;;;2.30;;
13927;SDS011;7036;50.834;4.718;2024-01-30T02:08:15;3.25;;;2.00;;
13927;SDS011;7036;50.834;4.718;2024-01-30T02:10:43;2.40;;;2.15;;
13927;SDS011;7036;50.834;4.718;2024-01-30T02:13:10;2.50;;;2.10;;
13927;SDS011;7036;50.834;4.718;2024-01-30T02:15:38;2.45;;;2.25;;
13927;SDS011;7036;50.834;4.718;2024-01-30T02:18:05;2.45;;;2.25;;
13927;SDS011;7036;50.834;4.718;2024-01-30T02:20:34;2.40;;;2.20;;
13927;SDS011;7036;50.834;4.718;2024-01-30T02:23:01;3.42;;;2.28;;
13927;SDS011;7036;50.834;4.718;2024-01-30T02:25:39;2.40;;;2.20;;
13927;SDS011;7036;50.834;4.718;2024-01-30T02:28:05;2.53;;;2.33;;
13927;SDS011;7036;50.834;4.718;2024-01-30T02:30:32;2.53;;;2.33;;
13927;SDS011;7036;50.834;4.718;2024-01-30T02:33:00;2.55;;;2.35;;
13927;SDS011;7036;50.834;4.718;2024-01-30T02:35:28;2.67;;;2.40;;
13927;SDS011;7036;50.834;4.718;2024-01-30T02:37:56;2.80;;;2.60;;
13927;SDS011;7036;50.834;4.718;2024-01-30T02:40:23;2.92;;;2.50;;
13927;SDS011;7036;50.834;4.718;2024-01-30T02:42:51;2.78;;;2.33;;
13927;SDS011;7036;50.834;4.718;2024-01-30T02:45:19;3.78;;;2.53;;
13927;SDS011;7036;50.834;4.718;2024-01-30T02:47:46;2.60;;;2.40;;
13927;SDS011;7036;50.834;4.718;2024-01-30T02:50:14;2.65;;;2.45;;
13927;SDS011;7036;50.834;4.718;2024-01-30T02:52:42;2.58;;;2.38;;
13927;SDS011;7036;50.834;4.718;2024-01-30T02:55:11;3.37;;;2.50;;
13927;SDS011;7036;50.834;4.718;2024-01-30T02:57:39;2.92;;;2.65;;
13927;SDS011;7036;50.834;4.718;2024-01-30T03:00:07;2.90;;;2.60;;
13927;SDS011;7036;50.834;4.718;2024-01-30T03:02:34;2.40;;;2.10;;
13927;SDS011;7036;50.834;4.718;2024-01-30T03:05:01;2.85;;;2.50;;
13927;SDS011;7036;50.834;4.718;2024-01-30T03:07:29;2.85;;;2.60;;
13927;SDS011;7036;50.834;4.718;2024-01-30T03:09:57;3.28;;;2.97;;
13927;SDS011;7036;50.834;4.718;2024-01-30T03:12:25;2.70;;;2.47;;
13927;SDS011;7036;50.834;4.718;2024-01-30T03:14:53;2.97;;;2.67;;
13927;SDS011;7036;50.834;4.718;2024-01-30T03:17:21;2.60;;;2.40;;
13927;SDS011;7036;50.834;4.718;2024-01-30T03:19:48;2.87;;;2.47;;
13927;SDS011;7036;50.834;4.718;2024-01-30T03:22:16;2.53;;;2.33;;
13927;SDS011;7036;50.834;4.718;2024-01-30T03:24:44;2.40;;;2.20;;
13927;SDS011;7036;50.834;4.718;2024-01-30T03:27:12;2.90;;;2.55;;
13927;SDS011;7036;50.834;4.718;2024-01-30T03:29:40;3.60;;;2.50;;
13927;SDS011;7036;50.834;4.718;2024-01-30T03:32:08;3.25;;;2.40;;
13927;SDS011;7036;50.834;4.718;2024-01-30T03:34:36;2.47;;;2.28;;
13927;SDS011;7036;50.834;4.718;2024-01-30T03:37:03;3.40;;;2.47;;
13927;SDS011;7036;50.834;4.718;2024-01-30T03:39:31;2.63;;;2.42;;
13927;SDS011;7036;50.834;4.718;2024-01-30T03:41:59;2.60;;;2.40;;
13927;SDS011;7036;50.834;4.718;2024-01-30T03:44:27;2.13;;;2.00;;
13927;SDS011;7036;50.834;4.718;2024-01-30T03:46:55;2.47;;;2.28;;
13927;SDS011;7036;50.834;4.718;2024-01-30T03:49:23;2.35;;;2.15;;
13927;SDS011;7036;50.834;4.718;2024-01-30T03:51:51;2.53;;;2.33;;
13927;SDS011;7036;50.834;4.718;2024-01-30T03:54:19;2.72;;;2.25;;
13927;SDS011;7036;50.834;4.718;2024-01-30T03:56:47;3.10;;;2.80;;
13927;SDS011;7036;50.834;4.718;2024-01-30T03:59:14;2.97;;;2.55;;
13927;SDS011;7036;50.834;4.718;2024-01-30T04:01:42;2.40;;;2.20;;
13927;SDS011;7036;50.834;4.718;2024-01-30T04:04:10;2.60;;;2.33;;
13927;SDS011;7036;50.834;4.718;2024-01-30T04:06:37;3.25;;;2.60;;
13927;SDS011;7036;50.834;4.718;2024-01-30T04:09:05;2.47;;;2.10;;
13927;SDS011;7036;50.834;4.718;2024-01-30T04:11:33;2.60;;;2.40;;
13927;SDS011;7036;50.834;4.718;2024-01-30T04:14:01;2.40;;;2.20;;
13927;SDS011;7036;50.834;4.718;2024-01-30T04:16:29;4.82;;;2.50;;
13927;SDS011;7036;50.834;4.718;2024-01-30T04:18:57;3.05;;;2.28;;
13927;SDS011;7036;50.834;4.718;2024-01-30T04:21:25;3.35;;;2.47;;
13927;SDS011;7036;50.834;4.718;2024-01-30T04:23:52;3.33;;;2.67;;
13927;SDS011;7036;50.834;4.718;2024-01-30T04:26:19;3.70;;;2.70;;
13927;SDS011;7036;50.834;4.718;2024-01-30T04:28:47;2.53;;;2.33;;
13927;SDS011;7036;50.834;4.718;2024-01-30T04:31:15;2.85;;;2.58;;
13927;SDS011;7036;50.834;4.718;2024-01-30T04:33:42;3.85;;;2.38;;
13927;SDS011;7036;50.834;4.718;2024-01-30T04:36:10;4.15;;;2.67;;
13927;SDS011;7036;50.834;4.718;2024-01-30T04:38:38;2.42;;;2.22;;
13927;SDS011;7036;50.834;4.718;2024-01-30T04:41:06;3.35;;;2.53;;
13927;SDS011;7036;50.834;4.718;2024-01-30T04:43:34;2.50;;;2.28;;
13927;SDS011;7036;50.834;4.718;2024-01-30T04:46:02;2.67;;;2.47;;
13927;SDS011;7036;50.834;4.718;2024-01-30T04:48:30;2.97;;;2.63;;
13927;SDS011;7036;50.834;4.718;2024-01-30T04:50:58;3.45;;;2.60;;
13927;SDS011;7036;50.834;4.718;2024-01-30T04:53:25;4.00;;;2.78;;
13927;SDS011;7036;50.834;4.718;2024-01-30T04:55:53;3.67;;;2.53;;
13927;SDS011;7036;50.834;4.718;2024-01-30T04:58:21;2.53;;;2.30;;
13927;SDS011;7036;50.834;4.718;2024-01-30T05:00:49;3.83;;;2.78;;
13927;SDS011;7036;50.834;4.718;2024-01-30T05:03:19;5.93;;;2.53;;
13927;SDS011;7036;50.834;4.718;2024-01-30T05:05:45;3.92;;;2.45;;
13927;SDS011;7036;50.834;4.718;2024-01-30T05:08:13;3.67;;;2.55;;
13927;SDS011;7036;50.834;4.718;2024-01-30T05:10:41;3.38;;;2.67;;
13927;SDS011;7036;50.834;4.718;2024-01-30T05:13:09;5.03;;;2.35;;
13927;SDS011;7036;50.834;4.718;2024-01-30T05:15:36;2.85;;;2.28;;
13927;SDS011;7036;50.834;4.718;2024-01-30T05:18:04;2.78;;;2.58;;
13927;SDS011;7036;50.834;4.718;2024-01-30T05:20:31;2.88;;;2.33;;
13927;SDS011;7036;50.834;4.718;2024-01-30T05:22:59;2.47;;;2.28;;
13927;SDS011;7036;50.834;4.718;2024-01-30T05:25:27;5.10;;;2.75;;
13927;SDS011;7036;50.834;4.718;2024-01-30T05:27:55;2.97;;;2.78;;
13927;SDS011;7036;50.834;4.718;2024-01-30T05:30:22;4.88;;;2.60;;
13927;SDS011;7036;50.834;4.718;2024-01-30T05:32:49;3.33;;;2.50;;
13927;SDS011;7036;50.834;4.718;2024-01-30T05:35:17;3.75;;;2.67;;
13927;SDS011;7036;50.834;4.718;2024-01-30T05:37:45;3.40;;;2.28;;
13927;SDS011;7036;50.834;4.718;2024-01-30T05:40:13;3.05;;;2.10;;
13927;SDS011;7036;50.834;4.718;2024-01-30T05:42:41;2.60;;;2.30;;
13927;SDS011;7036;50.834;4.718;2024-01-30T05:45:09;3.70;;;2.90;;
13927;SDS011;7036;50.834;4.718;2024-01-30T05:47:36;3.10;;;2.80;;
13927;SDS011;7036;50.834;4.718;2024-01-30T05:50:04;2.97;;;2.65;;
13927;SDS011;7036;50.834;4.718;2024-01-30T05:52:32;2.63;;;2.40;;
13927;SDS011;7036;50.834;4.718;2024-01-30T05:54:59;3.17;;;2.53;;
13927;SDS011;7036;50.834;4.718;2024-01-30T05:57:26;3.75;;;2.97;;
13927;SDS011;7036;50.834;4.718;2024-01-30T05:59:54;3.53;;;2.90;;
13927;SDS011;7036;50.834;4.718;2024-01-30T06:02:22;3.15;;;2.58;;
13927;SDS011;7036;50.834;4.718;2024-01-30T06:04:49;2.80;;;2.35;;
13927;SDS011;7036;50.834;4.718;2024-01-30T06:07:17;3.28;;;2.67;;
13927;SDS011;7036;50.834;4.718;2024-01-30T06:09:45;3.25;;;2.75;;
13927;SDS011;7036;50.834;4.718;2024-01-30T06:12:13;3.38;;;2.88;;
13927;SDS011;7036;50.834;4.718;2024-01-30T06:14:41;2.53;;;2.33;;
13927;SDS011;7036;50.834;4.718;2024-01-30T06:17:08;2.88;;;2.67;;
13927;SDS011;7036;50.834;4.718;2024-01-30T06:19:36;4.55;;;2.60;;
13927;SDS011;7036;50.834;4.718;2024-01-30T06:22:05;3.63;;;2.50;;
13927;SDS011;7036;50.834;4.718;2024-01-30T06:24:31;5.03;;;2.83;;
13927;SDS011;7036;50.834;4.718;2024-01-30T06:26:59;2.45;;;2.25;;
13927;SDS011;7036;50.834;4.718;2024-01-30T06:29:27;3.15;;;2.78;;
13927;SDS011;7036;50.834;4.718;2024-01-30T06:31:55;3.05;;;2.78;;
13927;SDS011;7036;50.834;4.718;2024-01-30T06:34:23;3.03;;;2.72;;
13927;SDS011;7036;50.834;4.718;2024-01-30T06:36:51;3.65;;;2.60;;
13927;SDS011;7036;50.834;4.718;2024-01-30T06:39:19;3.38;;;2.25;;
13927;SDS011;7036;50.834;4.718;2024-01-30T06:41:47;3.22;;;2.65;;
13927;SDS011;7036;50.834;4.718;2024-01-30T06:44:15;2.95;;;2.38;;
13927;SDS011;7036;50.834;4.718;2024-01-30T06:46:43;3.88;;;2.92;;
13927;SDS011;7036;50.834;4.718;2024-01-30T06:49:11;2.85;;;2.60;;
13927;SDS011;7036;50.834;4.718;2024-01-30T06:51:39;3.72;;;2.40;;
13927;SDS011;7036;50.834;4.718;2024-01-30T06:54:07;3.60;;;2.42;;
13927;SDS011;7036;50.834;4.718;2024-01-30T06:56:35;5.10;;;3.03;;
13927;SDS011;7036;50.834;4.718;2024-01-30T06:59:02;2.60;;;2.40;;
13927;SDS011;7036;50.834;4.718;2024-01-30T07:01:29;5.03;;;3.08;;
13927;SDS011;7036;50.834;4.718;2024-01-30T07:03:57;3.33;;;2.95;;
13927;SDS011;7036;50.834;4.718;2024-01-30T07:06:25;3.35;;;2.72;;
13927;SDS011;7036;50.834;4.718;2024-01-30T07:08:53;2.53;;;2.33;;
13927;SDS011;7036;50.834;4.718;2024-01-30T07:11:21;2.63;;;2.35;;
13927;SDS011;7036;50.834;4.718;2024-01-30T07:13:52;3.25;;;2.95;;
13927;SDS011;7036;50.834;4.718;2024-01-30T07:16:19;4.70;;;2.70;;
13927;SDS011;7036;50.834;4.718;2024-01-30T07:18:46;3.70;;;2.90;;
13927;SDS011;7036;50.834;4.718;2024-01-30T07:21:13;3.53;;;2.80;;
13927;SDS011;7036;50.834;4.718;2024-01-30T07:23:41;2.92;;;2.63;;
13927;SDS011;7036;50.834;4.718;2024-01-30T07:26:09;3.03;;;2.67;;
13927;SDS011;7036;50.834;4.718;2024-01-30T07:28:37;3.30;;;2.50;;
13927;SDS011;7036;50.834;4.718;2024-01-30T07:31:05;3.17;;;2.88;;
13927;SDS011;7036;50.834;4.718;2024-01-30T07:33:33;3.22;;;2.88;;
13927;SDS011;7036;50.834;4.718;2024-01-30T07:36:01;2.95;;;2.75;;
13927;SDS011;7036;50.834;4.718;2024-01-30T07:38:31;2.95;;;2.60;;
13927;SDS011;7036;50.834;4.718;2024-01-30T07:40:57;3.33;;;2.75;;
13927;SDS011;7036;50.834;4.718;2024-01-30T07:43:25;2.72;;;2.38;;
13927;SDS011;7036;50.834;4.718;2024-01-30T07:45:53;3.03;;;2.70;;
13927;SDS011;7036;50.834;4.718;2024-01-30T07:48:21;2.72;;;2.50;;
13927;SDS011;7036;50.834;4.718;2024-01-30T07:50:48;4.22;;;2.90;;
13927;SDS011;7036;50.834;4.718;2024-01-30T07:53:17;4.05;;;2.92;;
13927;SDS011;7036;50.834;4.718;2024-01-30T07:55:45;2.58;;;2.38;;
13927;SDS011;7036;50.834;4.718;2024-01-30T07:58:13;3.55;;;2.58;;
13927;SDS011;7036;50.834;4.718;2024-01-30T08:00:41;3.97;;;2.63;;
13927;SDS011;7036;50.834;4.718;2024-01-30T08:03:09;3.17;;;2.67;;
13927;SDS011;7036;50.834;4.718;2024-01-30T08:05:37;2.90;;;2.60;;
13927;SDS011;7036;50.834;4.718;2024-01-30T08:08:04;3.47;;;2.83;;
13927;SDS011;7036;50.834;4.718;2024-01-30T08:10:32;3.47;;;2.65;;
13927;SDS011;7036;50.834;4.718;2024-01-30T08:13:00;5.68;;;2.53;;
13927;SDS011;7036;50.834;4.718;2024-01-30T08:15:27;3.88;;;2.72;;
13927;SDS011;7036;50.834;4.718;2024-01-30T08:17:54;3.25;;;2.78;;
13927;SDS011;7036;50.834;4.718;2024-01-30T08:20:22;2.78;;;2.58;;
13927;SDS011;7036;50.834;4.718;2024-01-30T08:22:50;3.00;;;2.80;;
13927;SDS011;7036;50.834;4.718;2024-01-30T08:25:18;3.03;;;2.55;;
13927;SDS011;7036;50.834;4.718;2024-01-30T08:27:46;3.47;;;2.75;;
13927;SDS011;7036;50.834;4.718;2024-01-30T08:30:14;3.15;;;2.85;;
13927;SDS011;7036;50.834;4.718;2024-01-30T08:32:41;3.85;;;2.88;;
13927;SDS011;7036;50.834;4.718;2024-01-30T08:35:09;3.10;;;2.80;;
13927;SDS011;7036;50.834;4.718;2024-01-30T08:37:37;3.17;;;2.70;;
13927;SDS011;7036;50.834;4.718;2024-01-30T08:40:06;4.38;;;2.95;;
13927;SDS011;7036;50.834;4.718;2024-01-30T08:42:33;2.60;;;2.23;;
13927;SDS011;7036;50.834;4.718;2024-01-30T08:45:00;3.03;;;2.70;;
13927;SDS011;7036;50.834;4.718;2024-01-30T08:47:28;3.13;;;2.83;;
13927;SDS011;7036;50.834;4.718;2024-01-30T08:49:55;3.77;;;2.73;;
13927;SDS011;7036;50.834;4.718;2024-01-30T08:52:24;3.90;;;2.90;;
13927;SDS011;7036;50.834;4.718;2024-01-30T08:54:50;3.97;;;3.20;;
13927;SDS011;7036;50.834;4.718;2024-01-30T08:57:18;3.20;;;2.70;;
13927;SDS011;7036;50.834;4.718;2024-01-30T08:59:45;4.63;;;3.10;;
13927;SDS011;7036;50.834;4.718;2024-01-30T09:02:14;6.00;;;2.88;;
13927;SDS011;7036;50.834;4.718;2024-01-30T09:04:41;7.35;;;2.55;;
13927;SDS011;7036;50.834;4.718;2024-01-30T09:07:11;6.00;;;2.65;;
13927;SDS011;7036;50.834;4.718;2024-01-30T09:09:37;3.53;;;2.67;;
13927;SDS011;7036;50.834;4.718;2024-01-30T09:12:05;5.63;;;2.28;;
13927;SDS011;7036;50.834;4.718;2024-01-30T09:14:33;4.77;;;2.90;;
13927;SDS011;7036;50.834;4.718;2024-01-30T09:17:00;4.47;;;2.90;;
13927;SDS011;7036;50.834;4.718;2024-01-30T09:19:27;6.38;;;2.97;;
13927;SDS011;7036;50.834;4.718;2024-01-30T09:21:55;3.58;;;2.75;;
13927;SDS011;7036;50.834;4.718;2024-01-30T09:24:23;3.33;;;3.03;;
13927;SDS011;7036;50.834;4.718;2024-01-30T09:26:50;5.13;;;2.75;;
13927;SDS011;7036;50.834;4.718;2024-01-30T09:29:18;3.65;;;2.90;;
13927;SDS011;7036;50.834;4.718;2024-01-30T09:31:46;6.55;;;3.28;;
13927;SDS011;7036;50.834;4.718;2024-01-30T09:34:13;5.35;;;2.97;;
13927;SDS011;7036;50.834;4.718;2024-01-30T09:36:41;4.70;;;3.20;;
13927;SDS011;7036;50.834;4.718;2024-01-30T09:39:09;3.67;;;3.08;;
13927;SDS011;7036;50.834;4.718;2024-01-30T09:41:41;7.07;;;3.33;;
13927;SDS011;7036;50.834;4.718;2024-01-30T09:44:05;6.68;;;3.22;;
13927;SDS011;7036;50.834;4.718;2024-01-30T09:46:33;5.95;;;2.88;;
13927;SDS011;7036;50.834;4.718;2024-01-30T09:49:01;5.15;;;3.60;;
13927;SDS011;7036;50.834;4.718;2024-01-30T09:51:29;5.03;;;3.65;;
13927;SDS011;7036;50.834;4.718;2024-01-30T09:53:57;6.38;;;3.40;;
13927;SDS011;7036;50.834;4.718;2024-01-30T09:56:25;5.57;;;2.92;;
13927;SDS011;7036;50.834;4.718;2024-01-30T09:58:52;11.38;;;3.85;;
13927;SDS011;7036;50.834;4.718;2024-01-30T10:01:21;10.40;;;3.63;;
13927;SDS011;7036;50.834;4.718;2024-01-30T10:03:50;18.83;;;3.97;;
13927;SDS011;7036;50.834;4.718;2024-01-30T10:06:16;6.13;;;4.35;;
13927;SDS011;7036;50.834;4.718;2024-01-30T10:08:44;8.40;;;3.78;;
13927;SDS011;7036;50.834;4.718;2024-01-30T10:11:12;8.95;;;3.83;;
13927;SDS011;7036;50.834;4.718;2024-01-30T10:13:39;8.43;;;3.67;;
13927;SDS011;7036;50.834;4.718;2024-01-30T10:16:06;8.73;;;4.00;;
13927;SDS011;7036;50.834;4.718;2024-01-30T10:18:34;6.57;;;3.65;;
13927;SDS011;7036;50.834;4.718;2024-01-30T10:21:01;9.85;;;3.88;;
13927;SDS011;7036;50.834;4.718;2024-01-30T10:23:29;8.15;;;3.67;;
13927;SDS011;7036;50.834;4.718;2024-01-30T10:25:57;6.75;;;4.15;;
13927;SDS011;7036;50.834;4.718;2024-01-30T10:28:27;9.63;;;4.30;;
13927;SDS011;7036;50.834;4.718;2024-01-30T10:30:59;5.30;;;3.53;;
13927;SDS011;7036;50.834;4.718;2024-01-30T10:33:28;8.60;;;3.90;;
13927;SDS011;7036;50.834;4.718;2024-01-30T10:36:03;9.75;;;4.20;;
13927;SDS011;7036;50.834;4.718;2024-01-30T10:38:28;7.63;;;4.07;;
13927;SDS011;7036;50.834;4.718;2024-01-30T10:40:56;8.73;;;4.28;;
13927;SDS011;7036;50.834;4.718;2024-01-30T10:43:37;8.85;;;4.32;;
13927;SDS011;7036;50.834;4.718;2024-01-30T10:46:25;7.20;;;4.57;;
13927;SDS011;7036;50.834;4.718;2024-01-30T10:48:30;7.15;;;4.07;;
13927;SDS011;7036;50.834;4.718;2024-01-30T10:50:58;11.90;;;4.85;;
13927;SDS011;7036;50.834;4.718;2024-01-30T10:53:26;7.63;;;4.22;;
13927;SDS011;7036;50.834;4.718;2024-01-30T10:55:54;4.72;;;3.60;;
13927;SDS011;7036;50.834;4.718;2024-01-30T10:58:21;6.90;;;4.22;;
13927;SDS011;7036;50.834;4.718;2024-01-30T11:00:49;8.80;;;4.28;;
13927;SDS011;7036;50.834;4.718;2024-01-30T11:03:17;6.90;;;4.47;;
13927;SDS011;7036;50.834;4.718;2024-01-30T11:05:48;10.40;;;5.00;;
13927;SDS011;7036;50.834;4.718;2024-01-30T11:08:13;9.93;;;4.47;;
13927;SDS011;7036;50.834;4.718;2024-01-30T11:10:49;7.25;;;4.22;;
13927;SDS011;7036;50.834;4.718;2024-01-30T11:13:13;8.13;;;4.17;;
13927;SDS011;7036;50.834;4.718;2024-01-30T11:15:38;6.70;;;4.17;;
13927;SDS011;7036;50.834;4.718;2024-01-30T11:18:05;5.80;;;3.92;;
13927;SDS011;7036;50.834;4.718;2024-01-30T11:20:33;5.95;;;4.07;;
13927;SDS011;7036;50.834;4.718;2024-01-30T11:23:01;7.20;;;4.07;;
13927;SDS011;7036;50.834;4.718;2024-01-30T11:25:31;6.90;;;4.23;;
13927;SDS011;7036;50.834;4.718;2024-01-30T11:27:57;6.90;;;4.10;;
13927;SDS011;7036;50.834;4.718;2024-01-30T11:30:25;7.07;;;4.03;;
13927;SDS011;7036;50.834;4.718;2024-01-30T11:33:13;5.23;;;3.63;;
13927;SDS011;7036;50.834;4.718;2024-01-30T11:35:51;5.80;;;3.87;;
13927;SDS011;7036;50.834;4.718;2024-01-30T11:37:59;5.78;;;3.80;;
13927;SDS011;7036;50.834;4.718;2024-01-30T11:40:29;7.60;;;4.47;;
13927;SDS011;7036;50.834;4.718;2024-01-30T11:42:56;6.63;;;4.13;;
13927;SDS011;7036;50.834;4.718;2024-01-30T11:45:24;6.15;;;4.43;;
13927;SDS011;7036;50.834;4.718;2024-01-30T11:47:51;7.18;;;5.00;;
13927;SDS011;7036;50.834;4.718;2024-01-30T11:50:18;7.68;;;4.10;;
13927;SDS011;7036;50.834;4.718;2024-01-30T11:52:46;7.57;;;4.32;;
13927;SDS011;7036;50.834;4.718;2024-01-30T11:55:17;6.78;;;3.85;;
13927;SDS011;7036;50.834;4.718;2024-01-30T11:57:44;8.47;;;3.90;;
13927;SDS011;7036;50.834;4.718;2024-01-30T12:00:16;10.73;;;4.38;;
13927;SDS011;7036;50.834;4.718;2024-01-30T12:02:42;9.30;;;4.27;;
13927;SDS011;7036;50.834;4.718;2024-01-30T12:05:08;5.83;;;4.20;;
13927;SDS011;7036;50.834;4.718;2024-01-30T12:07:37;6.40;;;4.33;;
13927;SDS011;7036;50.834;4.718;2024-01-30T12:10:05;11.73;;;4.57;;
13927;SDS011;7036;50.834;4.718;2024-01-30T12:12:33;8.20;;;4.97;;
13927;SDS011;7036;50.834;4.718;2024-01-30T12:15:01;10.63;;;4.45;;
13927;SDS011;7036;50.834;4.718;2024-01-30T12:17:31;6.32;;;4.28;;
13927;SDS011;7036;50.834;4.718;2024-01-30T12:20:04;8.60;;;4.77;;
13927;SDS011;7036;50.834;4.718;2024-01-30T12:22:30;6.20;;;4.20;;
13927;SDS011;7036;50.834;4.718;2024-01-30T12:24:58;6.55;;;3.83;;
13927;SDS011;7036;50.834;4.718;2024-01-30T12:27:26;7.32;;;4.28;;
13927;SDS011;7036;50.834;4.718;2024-01-30T12:29:57;8.82;;;4.30;;
13927;SDS011;7036;50.834;4.718;2024-01-30T12:32:27;6.23;;;4.10;;
13927;SDS011;7036;50.834;4.718;2024-01-30T12:34:55;5.93;;;4.07;;
13927;SDS011;7036;50.834;4.718;2024-01-30T12:37:22;9.25;;;3.85;;
13927;SDS011;7036;50.834;4.718;2024-01-30T12:39:53;7.65;;;4.30;;
13927;SDS011;7036;50.834;4.718;2024-01-30T12:42:20;7.97;;;4.63;;
13927;SDS011;7036;50.834;4.718;2024-01-30T12:44:47;7.00;;;4.00;;
13927;SDS011;7036;50.834;4.718;2024-01-30T12:47:15;4.55;;;3.63;;
13927;SDS011;7036;50.834;4.718;2024-01-30T12:49:43;4.47;;;3.70;;
13927;SDS011;7036;50.834;4.718;2024-01-30T12:52:10;5.32;;;4.05;;
13927;SDS011;7036;50.834;4.718;2024-01-30T12:54:38;7.00;;;4.32;;
13927;SDS011;7036;50.834;4.718;2024-01-30T12:57:06;4.53;;;3.65;;
13927;SDS011;7036;50.834;4.718;2024-01-30T12:59:33;5.03;;;3.42;;
13927;SDS011;7036;50.834;4.718;2024-01-30T13:02:01;5.30;;;3.90;;
13927;SDS011;7036;50.834;4.718;2024-01-30T13:04:29;4.68;;;3.35;;
13927;SDS011;7036;50.834;4.718;2024-01-30T13:06:57;4.28;;;3.53;;
13927;SDS011;7036;50.834;4.718;2024-01-30T13:09:25;4.78;;;3.33;;
13927;SDS011;7036;50.834;4.718;2024-01-30T13:11:53;4.80;;;3.33;;
13927;SDS011;7036;50.834;4.718;2024-01-30T13:14:21;5.50;;;3.30;;
13927;SDS011;7036;50.834;4.718;2024-01-30T13:16:49;6.25;;;2.92;;
13927;SDS011;7036;50.834;4.718;2024-01-30T13:19:17;4.32;;;3.50;;
13927;SDS011;7036;50.834;4.718;2024-01-30T13:21:45;3.88;;;2.95;;
13927;SDS011;7036;50.834;4.718;2024-01-30T13:24:13;4.15;;;2.90;;
13927;SDS011;7036;50.834;4.718;2024-01-30T13:26:42;8.18;;;3.40;;
13927;SDS011;7036;50.834;4.718;2024-01-30T13:29:09;4.40;;;3.00;;
13927;SDS011;7036;50.834;4.718;2024-01-30T13:31:37;5.43;;;3.10;;
13927;SDS011;7036;50.834;4.718;2024-01-30T13:34:04;4.07;;;2.70;;
13927;SDS011;7036;50.834;4.718;2024-01-30T13:36:32;10.70;;;3.50;;
13927;SDS011;7036;50.834;4.718;2024-01-30T13:39:00;3.65;;;2.55;;
13927;SDS011;7036;50.834;4.718;2024-01-30T13:41:28;4.18;;;2.88;;
13927;SDS011;7036;50.834;4.718;2024-01-30T13:43:56;4.15;;;2.53;;
13927;SDS011;7036;50.834;4.718;2024-01-30T13:46:24;4.85;;;2.40;;
13927;SDS011;7036;50.834;4.718;2024-01-30T13:48:52;4.13;;;2.53;;
13927;SDS011;7036;50.834;4.718;2024-01-30T13:51:20;3.75;;;2.22;;
13927;SDS011;7036;50.834;4.718;2024-01-30T13:53:48;4.03;;;2.78;;
13927;SDS011;7036;50.834;4.718;2024-01-30T13:56:15;5.85;;;2.58;;
13927;SDS011;7036;50.834;4.718;2024-01-30T13:58:43;3.25;;;2.67;;
13927;SDS011;7036;50.834;4.718;2024-01-30T14:01:11;3.33;;;2.63;;
13927;SDS011;7036;50.834;4.718;2024-01-30T14:03:39;4.15;;;2.10;;
13927;SDS011;7036;50.834;4.718;2024-01-30T14:06:07;4.07;;;2.03;;
13927;SDS011;7036;50.834;4.718;2024-01-30T14:08:35;3.10;;;2.05;;
13927;SDS011;7036;50.834;4.718;2024-01-30T14:11:03;6.25;;;2.33;;
13927;SDS011;7036;50.834;4.718;2024-01-30T14:13:31;4.20;;;2.30;;
13927;SDS011;7036;50.834;4.718;2024-01-30T14:15:59;2.13;;;1.90;;
13927;SDS011;7036;50.834;4.718;2024-01-30T14:18:27;2.40;;;2.20;;
13927;SDS011;7036;50.834;4.718;2024-01-30T14:20:55;2.08;;;1.75;;
13927;SDS011;7036;50.834;4.718;2024-01-30T14:23:23;2.22;;;2.03;;
13927;SDS011;7036;50.834;4.718;2024-01-30T14:25:51;3.45;;;1.80;;
13927;SDS011;7036;50.834;4.718;2024-01-30T14:28:18;2.92;;;2.00;;
13927;SDS011;7036;50.834;4.718;2024-01-30T14:30:46;4.13;;;2.08;;
13927;SDS011;7036;50.834;4.718;2024-01-30T14:33:14;2.40;;;1.70;;
13927;SDS011;7036;50.834;4.718;2024-01-30T14:35:42;2.85;;;2.00;;
13927;SDS011;7036;50.834;4.718;2024-01-30T14:38:10;3.22;;;2.00;;
13927;SDS011;7036;50.834;4.718;2024-01-30T14:40:38;3.25;;;1.75;;
13927;SDS011;7036;50.834;4.718;2024-01-30T14:43:06;2.08;;;1.55;;
13927;SDS011;7036;50.834;4.718;2024-01-30T14:45:33;4.70;;;1.80;;
13927;SDS011;7036;50.834;4.718;2024-01-30T14:48:01;2.60;;;1.65;;
13927;SDS011;7036;50.834;4.718;2024-01-30T14:50:29;2.13;;;1.45;;
13927;SDS011;7036;50.834;4.718;2024-01-30T14:52:57;1.90;;;1.75;;
13927;SDS011;7036;50.834;4.718;2024-01-30T14:55:25;2.42;;;1.40;;
13927;SDS011;7036;50.834;4.718;2024-01-30T14:57:52;2.88;;;1.73;;
13927;SDS011;7036;50.834;4.718;2024-01-30T15:00:20;1.45;;;1.35;;
13927;SDS011;7036;50.834;4.718;2024-01-30T15:02:47;3.55;;;1.33;;